Time;durP1;ratioP1;P1;durP2;ratioP2;P2;SDS_P1;SDS_P2;PMS_P1;PMS_P2;Temp;Humidity;BMP_temperature;BMP_pressure;BME280_temperature;BME280_humidity;BME280_pressure;Samples;Min_cycle;Max_cycle;Signal;HPM_P1;HPM_P2
2023/03/24 00:01:54;;;;;;;4.00;2.83;;;21.00;54.60;;;;;;5077318;28;20525;-83
2023/03/24 00:04:23;;;;;;;5.60;3.30;;;20.90;54.40;;;;;;5077306;28;20514;-82
2023/03/24 00:06:53;;;;;;;6.03;3.30;;;20.90;54.50;;;;;;5077876;28;20496;-83
2023/03/24 00:09:21;;;;;;;3.17;2.80;;;20.90;54.50;;;;;;5074806;28;20457;-83
2023/03/24 00:11:49;;;;;;;5.90;3.20;;;20.90;54.60;;;;;;5081470;28;20523;-83
2023/03/24 00:14:17;;;;;;;9.73;3.47;;;20.90;54.60;;;;;;5080561;28;20456;-83
2023/03/24 00:16:45;;;;;;;3.93;3.20;;;20.90;54.70;;;;;;5091618;28;20469;-83
2023/03/24 00:19:14;;;;;;;3.93;3.13;;;20.90;54.60;;;;;;5088056;28;20517;-83
2023/03/24 00:21:42;;;;;;;9.23;3.23;;;20.90;54.60;;;;;;5085510;28;20497;-83
2023/03/24 00:24:12;;;;;;;5.10;3.00;;;20.90;54.70;;;;;;5086959;28;20433;-83
2023/03/24 00:26:40;;;;;;;3.77;2.80;;;20.90;54.60;;;;;;5086933;28;20473;-83
2023/03/24 00:29:11;;;;;;;5.03;2.80;;;20.80;54.60;;;;;;5083312;28;20445;-83
2023/03/24 00:31:39;;;;;;;5.70;2.87;;;20.80;54.70;;;;;;5091310;28;20421;-83
2023/03/24 00:34:07;;;;;;;6.70;3.03;;;20.80;54.70;;;;;;5072448;28;20445;-82
2023/03/24 00:36:36;;;;;;;4.70;2.77;;;20.80;54.80;;;;;;5068018;28;20480;-83
2023/03/24 00:39:05;;;;;;;9.73;3.10;;;20.80;54.80;;;;;;5080064;28;20471;-83
2023/03/24 00:41:34;;;;;;;5.83;2.90;;;20.80;54.80;;;;;;5069622;28;20569;-82
2023/03/24 00:44:04;;;;;;;4.00;2.90;;;20.70;54.70;;;;;;5067551;28;20969;-82
2023/03/24 00:46:33;;;;;;;3.90;2.70;;;20.70;54.80;;;;;;5073028;28;20469;-82
2023/03/24 00:49:04;;;;;;;5.93;2.93;;;20.70;54.80;;;;;;5074413;28;20446;-82
2023/03/24 00:51:34;;;;;;;4.50;2.97;;;20.70;54.80;;;;;;5067108;28;20517;-82
2023/03/24 00:54:02;;;;;;;2.67;2.40;;;20.70;54.90;;;;;;5067624;28;20464;-82
2023/03/24 00:56:31;;;;;;;4.53;2.70;;;20.70;55.00;;;;;;5067084;28;20477;-82
2023/03/24 00:59:01;;;;;;;4.63;2.40;;;20.70;54.90;;;;;;5067611;28;20469;-83
2023/03/24 01:01:31;;;;;;;4.87;2.90;;;20.70;54.90;;;;;;5081708;28;20445;-82
2023/03/24 01:07:34;;;;;;;3.63;2.33;;;20.60;54.90;;;;;;5071471;28;20461;-82
2023/03/24 01:10:02;;;;;;;5.60;2.50;;;20.60;55.00;;;;;;5072272;28;20456;-82
2023/03/24 01:12:31;;;;;;;5.73;4.20;;;20.60;55.00;;;;;;5074217;28;20511;-82
2023/03/24 01:15:01;;;;;;;12.30;4.60;;;20.60;55.10;;;;;;5067767;28;20518;-82
2023/03/24 01:17:30;;;;;;;8.57;5.20;;;20.60;55.10;;;;;;5074925;28;20556;-83
2023/03/24 01:19:58;;;;;;;7.43;5.50;;;20.60;55.10;;;;;;5079474;28;20453;-82
2023/03/24 01:22:27;;;;;;;9.23;6.40;;;20.60;55.10;;;;;;5074298;28;20457;-82
2023/03/24 01:24:55;;;;;;;7.83;6.30;;;20.60;55.30;;;;;;5083595;28;20449;-82
2023/03/24 01:27:24;;;;;;;8.57;6.40;;;20.60;55.30;;;;;;5067298;28;20476;-82
2023/03/24 01:29:52;;;;;;;7.40;6.00;;;20.60;55.10;;;;;;5076838;28;20460;-83
2023/03/24 01:32:22;;;;;;;8.80;5.90;;;20.60;55.10;;;;;;5065321;28;20484;-82
2023/03/24 01:34:50;;;;;;;9.43;5.10;;;20.60;54.90;;;;;;5079404;28;20449;-83
2023/03/24 01:37:18;;;;;;;9.20;5.30;;;20.60;55.10;;;;;;5079737;28;20461;-84
2023/03/24 01:39:46;;;;;;;9.00;5.83;;;20.60;55.20;;;;;;5087071;28;20480;-84
2023/03/24 01:42:16;;;;;;;6.73;5.00;;;20.50;55.00;;;;;;5083599;28;20485;-84
2023/03/24 01:44:46;;;;;;;7.93;5.20;;;20.50;55.10;;;;;;5086368;28;20480;-86
2023/03/24 01:47:14;;;;;;;9.93;5.53;;;20.60;55.20;;;;;;5084505;28;20509;-84
2023/03/24 01:49:45;;;;;;;9.80;5.20;;;20.50;55.10;;;;;;5087033;28;20424;-83
2023/03/24 01:52:15;;;;;;;8.00;4.70;;;20.50;55.10;;;;;;5085929;28;20465;-84
2023/03/24 01:54:46;;;;;;;4.93;4.27;;;20.50;55.20;;;;;;5086035;28;20465;-84
2023/03/24 01:57:18;;;;;;;5.43;4.07;;;20.50;55.20;;;;;;5085280;28;20533;-84
2023/03/24 01:59:47;;;;;;;5.93;4.60;;;20.50;55.40;;;;;;5082748;28;20492;-83
2023/03/24 02:02:15;;;;;;;4.80;3.90;;;20.50;55.30;;;;;;5082496;28;20610;-83
2023/03/24 02:04:47;;;;;;;7.33;4.37;;;20.50;55.30;;;;;;5084628;28;20485;-84
2023/03/24 02:07:19;;;;;;;5.70;4.40;;;20.50;55.30;;;;;;5076411;28;20476;-84
2023/03/24 02:09:48;;;;;;;6.87;3.70;;;20.50;55.30;;;;;;5082405;28;20446;-83
2023/03/24 02:12:17;;;;;;;10.63;4.00;;;20.50;55.40;;;;;;5086950;28;20524;-83
2023/03/24 02:14:46;;;;;;;7.40;4.20;;;20.50;55.40;;;;;;5086713;28;20453;-82
2023/03/24 02:17:25;;;;;;;5.23;3.87;;;20.50;55.40;;;;;;5082714;28;20484;-83
2023/03/24 02:20:15;;;;;;;6.63;3.80;;;20.40;55.40;;;;;;5080451;28;20510;-84
2023/03/24 02:23:17;;;;;;;4.40;3.40;;;20.40;55.50;;;;;;5071918;28;20452;-84
2023/03/24 02:25:57;;;;;;;5.53;3.63;;;20.40;55.50;;;;;;5083359;28;20453;-85
2023/03/24 02:28:32;;;;;;;4.67;3.50;;;20.40;55.60;;;;;;5074481;28;20485;-84
2023/03/24 02:31:20;;;;;;;6.60;3.90;;;20.40;55.60;;;;;;5080613;28;20472;-82
2023/03/24 02:34:40;;;;;;;3.60;3.30;;;20.40;55.60;;;;;;5080085;28;20453;-83
2023/03/24 02:37:38;;;;;;;5.23;3.50;;;20.40;55.70;;;;;;5074779;28;20469;-84
2023/03/24 02:40:36;;;;;;;6.43;3.40;;;20.40;55.80;;;;;;5051290;28;20473;-84
2023/03/24 02:43:17;;;;;;;5.50;3.60;;;20.40;55.70;;;;;;5081070;28;20464;-84
2023/03/24 02:45:53;;;;;;;4.43;3.33;;;20.30;55.60;;;;;;5080477;28;20462;-82
2023/03/24 02:48:27;;;;;;;6.17;2.97;;;20.40;55.90;;;;;;5078070;28;20477;-84
2023/03/24 02:50:58;;;;;;;4.23;3.50;;;20.30;55.80;;;;;;5082264;28;20445;-84
2023/03/24 02:53:30;;;;;;;4.30;3.30;;;20.40;55.80;;;;;;5076306;28;20458;-83
2023/03/24 02:56:00;;;;;;;7.77;3.80;;;20.30;55.80;;;;;;5083756;28;20454;-84
2023/03/24 02:58:31;;;;;;;5.63;3.50;;;20.30;55.70;;;;;;5082250;28;20965;-82
2023/03/24 03:01:02;;;;;;;3.53;3.23;;;20.40;55.90;;;;;;5083656;28;20460;-83
2023/03/24 03:03:33;;;;;;;3.50;3.20;;;20.40;55.80;;;;;;5081808;28;20471;-83
2023/03/24 03:06:02;;;;;;;4.50;3.23;;;20.40;55.90;;;;;;5081839;28;20453;-83
2023/03/24 03:08:32;;;;;;;5.77;3.27;;;20.40;55.90;;;;;;5079303;28;20557;-84
2023/03/24 03:11:02;;;;;;;3.37;3.07;;;20.30;55.90;;;;;;5081491;28;20453;-84
2023/03/24 03:13:31;;;;;;;3.43;3.10;;;20.30;55.90;;;;;;5082516;28;20452;-83
2023/03/24 03:16:03;;;;;;;3.37;3.07;;;20.30;55.90;;;;;;5080927;28;20449;-83
2023/03/24 03:18:32;;;;;;;2.80;2.60;;;20.30;55.90;;;;;;5082005;28;20480;-83
2023/03/24 03:21:03;;;;;;;3.27;2.83;;;20.30;56.00;;;;;;5083518;28;20454;-83
2023/03/24 03:23:33;;;;;;;6.10;3.10;;;20.30;56.00;;;;;;5079948;28;20495;-84
2023/03/24 03:26:04;;;;;;;4.30;3.30;;;20.30;56.00;;;;;;5082108;28;20537;-82
2023/03/24 03:28:33;;;;;;;4.90;3.17;;;20.30;56.00;;;;;;5079912;28;20454;-83
2023/03/24 03:31:05;;;;;;;3.47;3.17;;;20.30;56.10;;;;;;5083033;28;20476;-83
2023/03/24 03:33:35;;;;;;;3.03;2.80;;;20.30;56.00;;;;;;5079086;28;21004;-83
2023/03/24 03:36:06;;;;;;;3.13;2.80;;;20.30;56.10;;;;;;5081250;28;20473;-83
2023/03/24 03:38:36;;;;;;;5.27;3.10;;;20.30;56.10;;;;;;5079386;28;20453;-85
2023/03/24 03:41:06;;;;;;;4.43;3.13;;;20.30;56.00;;;;;;5087438;28;20485;-85
2023/03/24 03:43:34;;;;;;;2.93;2.73;;;20.30;56.10;;;;;;5080201;28;20456;-84
2023/03/24 03:46:02;;;;;;;2.80;2.60;;;20.30;56.10;;;;;;5064511;28;20462;-82
2023/03/24 03:48:30;;;;;;;3.93;2.70;;;20.30;56.20;;;;;;5074033;28;20473;-83
2023/03/24 03:50:59;;;;;;;3.27;2.97;;;20.30;56.30;;;;;;5073662;28;20533;-83
2023/03/24 03:53:43;;;;;;;3.40;3.10;;;20.30;56.40;;;;;;5068221;28;20457;-84
2023/03/24 03:56:12;;;;;;;3.20;2.80;;;20.30;56.40;;;;;;5065051;28;20450;-83
2023/03/24 03:58:41;;;;;;;3.40;3.00;;;20.30;56.40;;;;;;5074266;28;20965;-84
2023/03/24 04:01:12;;;;;;;4.00;2.77;;;20.30;56.40;;;;;;5073216;28;20525;-84
2023/03/24 04:04:02;;;;;;;3.60;2.87;;;20.30;56.40;;;;;;5074079;28;20556;-84
2023/03/24 04:06:34;;;;;;;3.03;2.73;;;20.30;56.40;;;;;;5071757;28;20461;-84
2023/03/24 04:09:06;;;;;;;3.30;2.77;;;20.30;56.40;;;;;;5076528;28;20467;-84
2023/03/24 04:11:51;;;;;;;4.20;2.70;;;20.30;56.50;;;;;;5077397;28;20446;-82
2023/03/24 04:14:36;;;;;;;2.77;2.57;;;20.30;56.50;;;;;;5075976;28;20503;-84
2023/03/24 04:17:07;;;;;;;3.20;3.00;;;20.30;56.40;;;;;;5072548;28;20540;-83
2023/03/24 04:19:42;;;;;;;3.37;3.10;;;20.30;56.60;;;;;;5067716;28;20473;-84
2023/03/24 04:22:20;;;;;;;2.73;2.53;;;20.20;56.50;;;;;;5071971;28;20460;-84
2023/03/24 04:24:49;;;;;;;2.60;2.40;;;20.20;56.50;;;;;;5079627;28;20449;-85
2023/03/24 04:27:26;;;;;;;3.47;2.73;;;20.30;56.60;;;;;;5078804;28;20473;-84
2023/03/24 04:29:59;;;;;;;2.50;2.30;;;20.20;56.60;;;;;;5079292;28;20531;-85
2023/03/24 04:32:31;;;;;;;2.77;2.57;;;20.20;56.60;;;;;;5081165;28;20470;-83
2023/03/24 04:35:00;;;;;;;2.60;2.10;;;20.30;56.80;;;;;;5082788;28;20509;-83
2023/03/24 04:37:31;;;;;;;2.17;2.07;;;20.20;56.70;;;;;;5082897;28;20836;-82
2023/03/24 04:39:59;;;;;;;3.10;2.90;;;20.20;56.70;;;;;;5082863;28;20564;-83
2023/03/24 04:42:32;;;;;;;2.93;2.63;;;20.20;56.70;;;;;;5081403;28;20509;-82
2023/03/24 04:45:00;;;;;;;2.77;2.57;;;20.20;56.80;;;;;;5075441;28;20449;-84
2023/03/24 04:47:30;;;;;;;3.00;2.70;;;20.20;56.90;;;;;;5081658;28;20492;-84
2023/03/24 04:50:02;;;;;;;2.77;2.57;;;20.20;57.00;;;;;;5080379;28;20490;-84
2023/03/24 04:52:30;;;;;;;2.13;2.03;;;20.20;56.90;;;;;;5076441;28;20526;-84
2023/03/24 04:54:58;;;;;;;2.70;2.50;;;20.20;57.00;;;;;;5081135;28;20481;-83
2023/03/24 04:57:26;;;;;;;2.60;2.40;;;20.20;57.10;;;;;;5081309;28;20466;-84
2023/03/24 04:59:55;;;;;;;2.67;2.50;;;20.20;57.00;;;;;;5083169;28;20529;-83
2023/03/24 05:02:23;;;;;;;2.57;2.37;;;20.20;57.00;;;;;;5087279;28;20448;-83
2023/03/24 05:04:51;;;;;;;3.13;2.60;;;20.20;57.20;;;;;;5088480;28;20457;-83
2023/03/24 05:07:20;;;;;;;2.83;2.53;;;20.20;57.10;;;;;;5084904;28;20563;-84
2023/03/24 05:09:47;;;;;;;2.77;2.60;;;20.20;57.10;;;;;;5088663;28;20441;-85
2023/03/24 05:12:16;;;;;;;2.60;2.50;;;20.20;57.10;;;;;;5084222;28;20473;-84
2023/03/24 05:14:44;;;;;;;2.60;2.40;;;20.20;57.10;;;;;;5088443;28;20509;-85
2023/03/24 05:17:14;;;;;;;2.50;2.40;;;20.20;57.20;;;;;;5088883;28;20469;-85
2023/03/24 05:19:41;;;;;;;2.30;2.00;;;20.20;57.20;;;;;;5085670;28;20487;-83
2023/03/24 05:22:10;;;;;;;3.47;2.37;;;20.20;57.20;;;;;;5083894;28;20445;-83
2023/03/24 05:24:39;;;;;;;2.30;2.10;;;20.20;57.30;;;;;;5087023;28;20519;-83
2023/03/24 05:27:07;;;;;;;2.43;2.23;;;20.20;57.20;;;;;;5084944;28;20480;-83
2023/03/24 05:29:35;;;;;;;2.10;2.00;;;20.20;57.30;;;;;;5082644;28;20450;-84
2023/03/24 05:32:03;;;;;;;2.50;2.30;;;20.20;57.20;;;;;;5087800;28;20453;-83
2023/03/24 05:34:33;;;;;;;2.50;2.30;;;20.20;57.20;;;;;;5083882;28;20461;-83
2023/03/24 05:37:01;;;;;;;2.10;2.00;;;20.30;57.30;;;;;;5083702;28;20556;-84
2023/03/24 05:39:30;;;;;;;2.73;2.30;;;20.30;57.20;;;;;;5085746;28;20461;-83
2023/03/24 05:41:58;;;;;;;2.67;2.47;;;20.20;57.20;;;;;;5084446;28;20467;-83
2023/03/24 05:44:26;;;;;;;2.33;2.07;;;20.20;57.20;;;;;;5088378;28;20445;-82
2023/03/24 05:46:54;;;;;;;2.60;2.40;;;20.20;57.20;;;;;;5088668;28;20497;-83
2023/03/24 05:49:22;;;;;;;2.47;2.27;;;20.20;57.20;;;;;;5085333;28;20512;-83
2023/03/24 05:51:52;;;;;;;2.20;2.00;;;20.20;57.20;;;;;;5088054;28;20455;-83
2023/03/24 05:54:21;;;;;;;2.43;2.33;;;20.20;57.10;;;;;;5085158;28;20458;-83
2023/03/24 05:56:49;;;;;;;1.87;1.77;;;20.20;57.20;;;;;;5085988;28;20471;-84
2023/03/24 05:59:17;;;;;;;1.87;1.77;;;20.20;57.20;;;;;;5079917;28;20452;-85
2023/03/24 06:01:47;;;;;;;2.60;2.30;;;20.20;57.20;;;;;;5088531;28;20465;-83
2023/03/24 06:04:14;;;;;;;2.10;2.00;;;20.20;57.10;;;;;;5089703;28;20450;-83
2023/03/24 06:06:44;;;;;;;2.60;2.40;;;20.30;57.20;;;;;;5088140;28;20525;-83
2023/03/24 06:09:15;;;;;;;2.87;2.20;;;20.20;57.10;;;;;;5083729;28;20449;-81
2023/03/24 06:11:43;;;;;;;3.07;2.20;;;20.30;56.90;;;;;;5090086;28;20445;-84
2023/03/24 06:14:11;;;;;;;2.80;2.40;;;20.30;57.10;;;;;;5088678;28;20452;-83
2023/03/24 06:16:39;;;;;;;2.60;2.40;;;20.30;56.80;;;;;;5086611;28;20461;-83
2023/03/24 06:19:07;;;;;;;2.30;2.20;;;20.30;57.00;;;;;;5081323;28;20570;-82
2023/03/24 06:21:36;;;;;;;2.27;2.13;;;20.20;56.90;;;;;;5089123;28;20477;-85
2023/03/24 06:24:04;;;;;;;2.20;2.00;;;20.30;57.00;;;;;;5089210;28;20460;-84
2023/03/24 06:26:33;;;;;;;2.03;1.93;;;20.30;56.90;;;;;;5086994;28;20492;-84
2023/03/24 06:29:02;;;;;;;2.27;2.07;;;20.30;56.80;;;;;;5083908;28;20454;-83
2023/03/24 06:31:38;;;;;;;2.37;2.20;;;20.20;56.70;;;;;;5086537;28;20477;-82
2023/03/24 06:34:06;;;;;;;2.77;2.10;;;20.30;56.80;;;;;;5081519;28;20457;-83
2023/03/24 06:36:34;;;;;;;1.80;1.70;;;20.20;56.60;;;;;;5077689;28;20541;-83
2023/03/24 06:39:04;;;;;;;2.80;2.60;;;20.30;56.80;;;;;;5081278;28;20454;-83
2023/03/24 06:41:34;;;;;;;2.53;2.33;;;20.30;56.80;;;;;;5085332;28;20472;-79
2023/03/24 06:44:02;;;;;;;2.40;1.90;;;20.30;56.60;;;;;;5083330;28;20507;-81
2023/03/24 06:46:30;;;;;;;2.07;1.97;;;20.40;56.70;;;;;;5081453;28;20569;-83
2023/03/24 06:48:58;;;;;;;2.10;2.00;;;20.40;56.50;;;;;;5083417;28;20472;-83
2023/03/24 06:51:26;;;;;;;2.43;2.30;;;20.50;56.70;;;;;;5085034;28;20449;-83
2023/03/24 06:53:54;;;;;;;2.67;2.47;;;20.50;56.40;;;;;;5078921;28;20528;-83
2023/03/24 06:56:22;;;;;;;2.13;1.87;;;20.50;56.40;;;;;;5080146;28;20965;-83
2023/03/24 06:58:52;;;;;;;3.50;2.67;;;20.50;56.40;;;;;;5080237;28;20532;-84
2023/03/24 07:01:21;;;;;;;2.37;2.20;;;20.50;56.40;;;;;;5084912;28;20892;-84
2023/03/24 07:03:49;;;;;;;2.33;2.13;;;20.50;56.30;;;;;;5084942;28;20864;-82
2023/03/24 07:06:17;;;;;;;2.10;1.70;;;20.50;56.20;;;;;;5084843;28;20533;-82
2023/03/24 07:08:45;;;;;;;1.93;1.67;;;20.60;56.40;;;;;;5080148;28;20456;-81
2023/03/24 07:11:14;;;;;;;2.17;1.97;;;20.60;56.30;;;;;;5088021;28;20445;-82
2023/03/24 07:13:42;;;;;;;1.90;1.80;;;20.60;56.20;;;;;;5081626;28;20552;-81
2023/03/24 07:16:12;;;;;;;2.10;2.00;;;20.60;56.20;;;;;;5080330;28;20498;-81
2023/03/24 07:18:40;;;;;;;2.50;2.20;;;20.60;55.90;;;;;;5088546;28;20475;-84
2023/03/24 07:21:08;;;;;;;2.40;1.80;;;20.60;56.20;;;;;;5081223;28;20466;-83
2023/03/24 07:23:38;;;;;;;3.37;2.03;;;20.70;56.00;;;;;;5079591;28;20517;-81
2023/03/24 07:26:10;;;;;;;2.20;2.10;;;20.70;56.00;;;;;;5084154;28;20454;-80
2023/03/24 07:28:38;;;;;;;2.23;2.10;;;20.70;55.90;;;;;;5083392;28;20466;-82
2023/03/24 07:31:09;;;;;;;2.77;2.20;;;20.70;55.80;;;;;;5081347;28;20455;-83
2023/03/24 07:33:39;;;;;;;3.27;2.23;;;20.70;55.70;;;;;;5080945;28;20460;-83
2023/03/24 07:36:08;;;;;;;3.37;2.73;;;20.70;55.90;;;;;;5082292;28;21009;-83
2023/03/24 07:38:36;;;;;;;3.07;1.90;;;20.70;55.90;;;;;;5075299;28;20467;-81
2023/03/24 07:41:05;;;;;;;4.40;2.57;;;20.70;55.80;;;;;;5076217;28;20476;-81
2023/03/24 07:43:34;;;;;;;4.53;1.90;;;20.70;55.70;;;;;;5080045;28;20449;-82
2023/03/24 07:46:02;;;;;;;3.80;2.03;;;20.70;55.60;;;;;;5078001;28;20453;-81
2023/03/24 07:48:30;;;;;;;2.57;2.03;;;20.70;55.80;;;;;;5075278;28;20456;-82
2023/03/24 07:51:00;;;;;;;3.37;2.00;;;20.70;55.80;;;;;;5075155;28;20428;-82
2023/03/24 07:53:28;;;;;;;1.90;1.70;;;20.70;55.80;;;;;;5072498;28;20450;-82
2023/03/24 07:55:56;;;;;;;2.93;2.20;;;20.80;55.90;;;;;;5078260;28;20460;-82
2023/03/24 07:58:24;;;;;;;3.67;2.30;;;20.70;55.70;;;;;;5081703;28;20556;-82
2023/03/24 08:00:52;;;;;;;2.70;2.10;;;20.70;55.70;;;;;;5073382;28;20452;-82
2023/03/24 08:03:24;;;;;;;2.37;2.07;;;20.80;55.70;;;;;;5075981;28;20453;-82
2023/03/24 08:05:53;;;;;;;2.27;2.07;;;20.80;55.60;;;;;;5077793;28;20450;-81
2023/03/24 08:08:23;;;;;;;3.17;2.40;;;20.80;55.50;;;;;;5076794;28;20537;-82
2023/03/24 08:10:51;;;;;;;2.87;2.27;;;20.80;55.60;;;;;;5073310;28;20536;-82
2023/03/24 08:13:20;;;;;;;6.70;1.93;;;20.90;55.50;;;;;;5070633;28;20454;-81
2023/03/24 08:15:57;;;;;;;5.30;1.97;;;20.90;55.40;;;;;;5076620;28;20465;-81
2023/03/24 08:18:26;;;;;;;2.47;2.20;;;20.90;55.50;;;;;;5075184;28;20471;-81
2023/03/24 08:20:56;;;;;;;4.03;2.10;;;20.90;55.40;;;;;;5082526;28;20450;-82
2023/03/24 08:23:26;;;;;;;2.40;2.17;;;20.80;55.40;;;;;;5082774;28;20465;-82
2023/03/24 08:25:54;;;;;;;5.07;2.07;;;20.90;55.40;;;;;;5087052;28;20452;-81
2023/03/24 08:28:22;;;;;;;2.47;2.27;;;21.00;55.50;;;;;;5086165;28;20540;-81
2023/03/24 08:30:50;;;;;;;2.10;1.87;;;21.00;55.40;;;;;;5084617;28;20455;-82
2023/03/24 08:33:18;;;;;;;3.37;2.07;;;21.10;55.20;;;;;;5085377;28;20464;-80
2023/03/24 08:35:46;;;;;;;5.07;2.50;;;21.10;55.10;;;;;;5082827;28;20452;-82
2023/03/24 08:38:15;;;;;;;4.20;2.17;;;21.10;55.10;;;;;;5080397;28;20491;-82
2023/03/24 08:40:47;;;;;;;3.17;2.33;;;21.10;55.00;;;;;;5082355;28;20471;-82
2023/03/24 08:43:16;;;;;;;2.87;2.03;;;21.00;55.00;;;;;;5084996;28;20495;-81
2023/03/24 08:45:44;;;;;;;3.57;2.23;;;21.00;55.00;;;;;;5082894;28;20469;-82
2023/03/24 08:48:12;;;;;;;3.77;1.90;;;21.10;55.20;;;;;;5081916;28;20457;-82
2023/03/24 08:50:40;;;;;;;4.50;1.87;;;21.10;55.10;;;;;;5084913;28;20456;-82
2023/03/24 08:53:10;;;;;;;2.97;1.90;;;21.10;55.00;;;;;;5083063;28;20447;-83
2023/03/24 08:55:40;;;;;;;3.10;2.00;;;21.10;54.90;;;;;;5071570;28;20529;-81
2023/03/24 08:58:12;;;;;;;4.30;1.90;;;21.20;54.90;;;;;;5084457;28;20480;-82
2023/03/24 09:00:41;;;;;;;2.70;2.17;;;21.20;54.90;;;;;;5082056;28;20451;-82
2023/03/24 09:03:10;;;;;;;3.17;2.00;;;21.20;54.60;;;;;;5084221;28;20485;-82
2023/03/24 09:05:38;;;;;;;3.80;2.07;;;21.20;54.70;;;;;;5082008;28;20462;-82
2023/03/24 09:08:12;;;;;;;2.93;2.17;;;21.10;54.60;;;;;;5083704;28;20477;-82
2023/03/24 09:10:42;;;;;;;3.30;2.07;;;21.10;54.70;;;;;;5082583;28;20459;-83
2023/03/24 09:13:12;;;;;;;2.93;1.60;;;21.20;54.80;;;;;;5081905;28;20446;-81
2023/03/24 09:15:50;;;;;;;2.80;1.93;;;21.20;54.90;;;;;;5081538;28;20464;-82
2023/03/24 09:18:21;;;;;;;4.13;2.10;;;21.20;54.60;;;;;;5084248;28;20458;-83
2023/03/24 09:20:49;;;;;;;6.43;2.40;;;21.20;54.60;;;;;;5082273;28;20449;-82
2023/03/24 09:23:17;;;;;;;4.10;2.07;;;21.20;54.70;;;;;;5085617;28;20481;-82
2023/03/24 09:25:45;;;;;;;5.50;2.13;;;21.30;54.60;;;;;;5082103;28;20456;-82
2023/03/24 09:28:15;;;;;;;1.93;1.50;;;21.30;54.40;;;;;;5080358;28;20461;-81
2023/03/24 09:30:43;;;;;;;4.43;2.30;;;21.20;54.40;;;;;;5075532;28;20734;-81
2023/03/24 09:33:14;;;;;;;2.70;2.20;;;21.30;54.50;;;;;;5078314;28;20475;-82
2023/03/24 09:35:42;;;;;;;3.40;2.00;;;21.30;54.60;;;;;;5080832;28;20453;-81
2023/03/24 09:38:13;;;;;;;6.03;2.30;;;21.30;54.60;;;;;;5082749;28;20479;-82
2023/03/24 09:40:42;;;;;;;4.33;1.80;;;21.40;54.50;;;;;;5082241;28;20461;-83
2023/03/24 09:43:16;;;;;;;5.03;2.50;;;21.50;54.50;;;;;;5084108;28;20444;-82
2023/03/24 09:45:48;;;;;;;6.00;2.50;;;21.60;54.40;;;;;;5086372;28;20484;-82
2023/03/24 09:52:24;;;;;;;4.10;2.00;;;21.70;54.10;;;;;;5023502;28;20490;-82
2023/03/24 09:54:54;;;;;;;5.37;2.40;;;21.80;54.00;;;;;;5056960;28;20464;-81
2023/03/24 09:57:23;;;;;;;7.17;2.10;;;21.80;54.10;;;;;;5079998;28;20520;-82
2023/03/24 09:59:52;;;;;;;7.20;2.33;;;21.90;54.50;;;;;;5085631;28;20516;-84
2023/03/24 10:02:21;;;;;;;3.60;1.97;;;22.20;54.50;;;;;;5086749;28;20543;-82
2023/03/24 10:05:09;;;;;;;7.27;2.67;;;22.50;54.80;;;;;;5080956;28;20446;-82
2023/03/24 10:07:40;;;;;;;8.60;2.20;;;22.80;54.80;;;;;;5073321;28;20469;-82
2023/03/24 10:10:14;;;;;;;4.63;2.20;;;23.00;54.60;;;;;;5075205;28;20454;-82
2023/03/24 10:12:43;;;;;;;3.00;2.17;;;23.30;54.50;;;;;;5070621;28;20462;-82
2023/03/24 10:15:20;;;;;;;3.30;2.03;;;23.60;54.80;;;;;;5070266;28;20420;-81
2023/03/24 10:18:10;;;;;;;3.87;1.97;;;23.90;54.50;;;;;;5074543;28;20469;-82
2023/03/24 10:20:41;;;;;;;5.23;2.40;;;24.30;54.70;;;;;;5076257;28;20454;-82
2023/03/24 10:23:17;;;;;;;6.07;2.20;;;24.60;54.60;;;;;;5071029;28;20466;-81
2023/03/24 10:25:49;;;;;;;6.93;2.23;;;25.00;54.40;;;;;;5073446;28;20432;-82
2023/03/24 10:28:19;;;;;;;2.70;2.03;;;25.20;54.00;;;;;;5072318;28;20526;-82
2023/03/24 10:30:49;;;;;;;2.17;1.90;;;25.60;53.80;;;;;;5074013;28;20453;-82
2023/03/24 10:33:17;;;;;;;5.20;1.83;;;25.80;53.40;;;;;;5071650;28;20467;-81
2023/03/24 10:35:50;;;;;;;3.60;2.30;;;26.10;53.40;;;;;;5074960;28;20841;-82
2023/03/24 10:38:20;;;;;;;4.07;2.33;;;26.30;53.00;;;;;;5072151;28;20499;-83
2023/03/24 10:40:48;;;;;;;5.13;2.27;;;26.50;52.70;;;;;;5070137;28;20448;-81
2023/03/24 10:43:17;;;;;;;4.30;2.13;;;26.80;52.50;;;;;;5069594;28;20456;-80
2023/03/24 10:45:49;;;;;;;4.40;2.30;;;27.10;52.40;;;;;;5073441;28;20461;-82
2023/03/24 10:48:36;;;;;;;5.00;2.13;;;27.50;52.20;;;;;;5074853;28;20448;-81
2023/03/24 10:51:04;;;;;;;5.10;1.97;;;27.70;51.30;;;;;;5074210;28;20428;-81
2023/03/24 10:53:33;;;;;;;3.03;2.03;;;28.00;51.00;;;;;;5070158;28;20472;-82
2023/03/24 10:56:02;;;;;;;3.97;2.10;;;28.30;50.80;;;;;;5072259;28;20481;-81
2023/03/24 10:58:37;;;;;;;4.53;1.77;;;28.60;50.50;;;;;;5069639;28;20445;-82
2023/03/24 11:01:09;;;;;;;6.90;2.30;;;29.10;50.20;;;;;;5077851;28;20457;-82
2023/03/24 11:03:37;;;;;;;4.50;2.10;;;29.10;48.80;;;;;;5073796;28;20445;-81
2023/03/24 11:06:05;;;;;;;3.97;2.20;;;28.90;49.00;;;;;;5073011;28;20481;-81
2023/03/24 11:08:35;;;;;;;4.57;1.90;;;29.00;49.20;;;;;;5078097;28;20449;-81
2023/03/24 11:11:13;;;;;;;3.87;1.83;;;28.90;48.70;;;;;;5078339;28;20532;-81
2023/03/24 11:13:42;;;;;;;2.93;2.00;;;28.80;48.40;;;;;;5076277;28;20513;-81
2023/03/24 11:16:13;;;;;;;6.93;2.27;;;28.70;48.30;;;;;;5073439;28;20450;-81
2023/03/24 11:18:55;;;;;;;4.83;2.20;;;28.60;48.20;;;;;;5072810;28;20441;-81
2023/03/24 11:21:23;;;;;;;5.93;2.67;;;28.30;48.40;;;;;;5074209;28;20448;-80
2023/03/24 11:23:51;;;;;;;5.00;2.13;;;28.00;48.70;;;;;;5075167;28;20444;-83
2023/03/24 11:26:20;;;;;;;5.20;2.10;;;27.80;48.80;;;;;;5077085;28;20469;-82
2023/03/24 11:28:51;;;;;;;6.47;2.20;;;27.70;49.50;;;;;;5080425;28;20519;-84
2023/03/24 11:31:25;;;;;;;4.93;2.17;;;27.80;48.50;;;;;;5073083;28;20521;-83
2023/03/24 11:33:57;;;;;;;5.17;1.90;;;28.80;50.90;;;;;;5067637;28;20972;-82
2023/03/24 11:36:46;;;;;;;6.33;2.43;;;29.00;46.80;;;;;;5068323;28;20487;-83
2023/03/24 11:39:17;;;;;;;3.97;2.10;;;30.30;44.90;;;;;;5071599;28;20453;-83
2023/03/24 11:41:52;;;;;;;3.00;1.90;;;29.80;44.80;;;;;;5064784;28;20481;-84
2023/03/24 11:44:21;;;;;;;3.97;1.77;;;29.60;45.60;;;;;;5067596;28;20454;-84
2023/03/24 11:46:53;;;;;;;3.83;2.23;;;31.10;45.50;;;;;;5073964;28;20477;-84
2023/03/24 11:49:25;;;;;;;4.20;1.90;;;31.00;43.60;;;;;;5073107;28;20538;-84
2023/03/24 11:51:57;;;;;;;2.83;1.80;;;32.80;44.10;;;;;;5068976;28;20524;-84
2023/03/24 11:54:28;;;;;;;4.10;1.80;;;34.20;41.80;;;;;;5064319;28;20473;-84
2023/03/24 11:56:59;;;;;;;3.00;1.80;;;36.10;38.40;;;;;;5069371;28;21030;-83
2023/03/24 11:59:34;;;;;;;2.50;1.70;;;37.20;34.40;;;;;;5077248;28;20456;-83
2023/03/24 12:02:12;;;;;;;2.70;1.43;;;38.10;34.80;;;;;;5067341;28;20488;-84
2023/03/24 12:04:56;;;;;;;4.43;1.63;;;39.30;33.00;;;;;;5069536;28;20529;-84
2023/03/24 12:07:34;;;;;;;1.27;1.27;;;40.40;31.30;;;;;;5070333;28;20460;-83
2023/03/24 12:10:03;;;;;;;1.53;1.43;;;41.40;30.00;;;;;;5070771;28;20449;-83
2023/03/24 12:12:35;;;;;;;2.30;1.60;;;42.20;29.30;;;;;;5072978;28;20447;-82
2023/03/24 12:15:20;;;;;;;1.70;1.60;;;42.90;28.50;;;;;;5071318;28;20486;-81
2023/03/24 12:18:01;;;;;;;3.67;1.63;;;43.50;27.80;;;;;;5072095;28;20472;-81
2023/03/24 12:20:30;;;;;;;4.63;1.70;;;44.00;26.90;;;;;;5071457;28;20453;-82
2023/03/24 12:23:00;;;;;;;3.97;1.60;;;42.80;27.60;;;;;;5068947;28;20452;-82
2023/03/24 12:25:40;;;;;;;1.53;1.40;;;42.20;28.50;;;;;;5069940;28;20449;-82
2023/03/24 12:28:25;;;;;;;1.50;1.37;;;42.90;27.90;;;;;;5075608;28;20460;-82
2023/03/24 12:30:58;;;;;;;2.13;1.93;;;42.30;27.40;;;;;;5072602;28;20458;-81
2023/03/24 12:33:38;;;;;;;1.70;1.50;;;41.00;27.70;;;;;;5074836;28;20445;-82
2023/03/24 12:36:14;;;;;;;8.40;2.23;;;40.70;29.80;;;;;;5071858;28;20454;-79
2023/03/24 12:39:00;;;;;;;7.60;2.40;;;41.60;27.50;;;;;;5073775;28;20461;-79
2023/03/24 12:41:34;;;;;;;7.23;2.40;;;40.10;26.40;;;;;;5068600;28;20457;-79
2023/03/24 12:44:11;;;;;;;7.43;2.70;;;38.30;28.10;;;;;;5074486;28;20461;-79
2023/03/24 12:46:41;;;;;;;9.33;2.87;;;36.70;29.40;;;;;;5075950;28;20540;-79
2023/03/24 12:49:39;;;;;;;3.77;2.67;;;35.40;31.00;;;;;;5069079;28;20451;-79
2023/03/24 12:55:40;;;;;;;3.53;2.40;;;33.70;34.10;;;;;;5066832;28;20803;-79
2023/03/24 12:58:15;;;;;;;8.73;2.70;;;32.90;35.20;;;;;;5070828;28;20504;-79
2023/03/24 13:00:50;;;;;;;6.90;2.90;;;32.50;36.10;;;;;;5075449;28;20453;-79
2023/03/24 13:03:21;;;;;;;7.30;3.13;;;32.10;36.40;;;;;;5071110;28;20449;-79
2023/03/24 13:05:54;;;;;;;4.60;2.77;;;31.80;36.90;;;;;;5070611;28;20461;-79
2023/03/24 13:08:40;;;;;;;5.03;3.20;;;31.50;37.80;;;;;;5067301;28;20445;-78
2023/03/24 13:11:25;;;;;;;4.97;3.40;;;31.20;38.20;;;;;;5075168;28;20988;-78
2023/03/24 13:14:01;;;;;;;6.70;3.07;;;31.00;38.60;;;;;;5068838;28;21004;-78
2023/03/24 13:16:32;;;;;;;2.70;2.43;;;30.90;39.20;;;;;;5067389;28;20517;-78
2023/03/24 13:19:03;;;;;;;6.23;3.13;;;30.70;39.10;;;;;;5069738;28;20792;-79
2023/03/24 13:21:34;;;;;;;3.53;2.93;;;30.50;39.50;;;;;;5076402;28;20992;-79